Time;durP1;ratioP1;P1;durP2;ratioP2;P2;SDS_P1;SDS_P2;PMS_P1;PMS_P2;Temp;Humidity;BMP_temperature;BMP_pressure;BME280_temperature;BME280_humidity;BME280_pressure;Samples;Min_cycle;Max_cycle;Signal;HPM_P1;HPM_P2
2022/04/15 00:00:09;;;;;;;5.50;3.88;;;;;;;20.84;32.47;101967.41;5005837;28;20116;-78
2022/04/15 00:02:36;;;;;;;6.72;4.00;;;;;;;20.81;32.33;101958.56;5009508;28;20045;-78
2022/04/15 00:05:29;;;;;;;6.13;4.00;;;;;;;20.79;32.85;101967.00;5001596;28;20112;-78
2022/04/15 00:07:52;;;;;;;5.85;3.75;;;;;;;20.76;32.72;101970.03;5003603;28;20100;-78
2022/04/15 00:10:19;;;;;;;8.50;4.05;;;;;;;20.72;32.76;101971.34;4999122;28;20062;-78
2022/04/15 00:12:46;;;;;;;6.85;3.88;;;;;;;20.70;32.82;101972.47;5011076;28;20540;-78
2022/04/15 00:15:12;;;;;;;5.55;3.55;;;;;;;20.67;32.87;101967.25;4998904;28;20493;-78
2022/04/15 00:17:40;;;;;;;6.60;3.90;;;;;;;20.64;32.79;101971.16;5010375;28;20662;-78
2022/04/15 00:20:07;;;;;;;5.97;4.22;;;;;;;20.63;32.47;101971.28;4996984;28;20069;-78
2022/04/15 00:22:33;;;;;;;6.90;4.18;;;;;;;20.59;32.73;101965.16;5011494;28;20131;-78
2022/04/15 00:25:00;;;;;;;6.00;3.95;;;;;;;20.56;32.52;101968.22;5009275;28;20058;-78
2022/04/15 00:27:27;;;;;;;6.40;4.35;;;;;;;20.53;33.04;101965.75;5009753;28;20078;-78
2022/04/15 00:29:54;;;;;;;7.25;4.35;;;;;;;20.50;32.72;101966.91;5009550;28;20079;-78
2022/04/15 00:32:20;;;;;;;7.13;3.70;;;;;;;20.47;32.76;101969.94;5009648;28;20050;-78
2022/04/15 00:34:47;;;;;;;6.25;4.40;;;;;;;20.45;32.72;101971.09;5009466;28;19977;-78
2022/04/15 00:37:14;;;;;;;7.50;4.50;;;;;;;20.40;33.20;101966.00;5010768;28;20541;-78
2022/04/15 00:39:45;;;;;;;5.43;3.78;;;;;;;20.38;32.76;101970.78;5009933;28;20078;-78
2022/04/15 00:42:12;;;;;;;6.45;4.38;;;;;;;20.36;33.29;101974.69;5009193;28;20045;-78
2022/04/15 00:44:39;;;;;;;5.88;4.35;;;;;;;20.34;32.95;101976.72;5008345;28;20497;-78
2022/04/15 00:47:19;;;;;;;7.00;4.00;;;;;;;20.33;33.35;101978.56;5007464;28;20662;-78
2022/04/15 00:49:45;;;;;;;6.53;4.15;;;;;;;20.27;33.11;101972.72;5010068;28;20107;-78
2022/04/15 00:52:13;;;;;;;5.90;3.75;;;;;;;20.25;33.18;101975.63;5009899;28;20057;-78
2022/04/15 00:54:42;;;;;;;7.22;4.13;;;;;;;20.24;33.27;101976.63;5002827;28;20062;-77
2022/04/15 00:57:11;;;;;;;5.97;3.58;;;;;;;20.21;33.41;101974.16;5010883;28;20061;-78
2022/04/15 00:59:39;;;;;;;5.28;3.53;;;;;;;20.18;33.46;101973.56;5010281;28;20089;-78
2022/04/15 01:02:09;;;;;;;6.75;3.90;;;;;;;20.17;33.51;101983.72;5011137;28;20108;-78
2022/04/15 01:04:42;;;;;;;6.10;3.50;;;;;;;20.12;33.46;101984.13;5010301;28;20054;-78
2022/04/15 01:07:12;;;;;;;5.90;3.72;;;;;;;20.12;33.51;101986.88;5008118;28;20046;-78
2022/04/15 01:09:43;;;;;;;6.80;3.88;;;;;;;20.08;33.46;101988.16;5006419;28;20502;-78
2022/04/15 01:12:11;;;;;;;5.97;3.80;;;;;;;20.05;33.68;101984.78;5012878;28;20049;-78
2022/04/15 01:14:38;;;;;;;6.53;3.72;;;;;;;20.03;33.90;101990.44;5003864;28;20081;-78
2022/04/15 01:17:05;;;;;;;5.00;3.55;;;;;;;20.00;33.92;101989.84;5011473;28;20129;-79
2022/04/15 01:19:32;;;;;;;5.22;3.72;;;;;;;19.97;33.68;101990.13;5007721;28;20061;-78
2022/04/15 01:22:02;;;;;;;6.22;3.70;;;;;;;19.98;33.97;101991.88;5008618;28;20085;-78
2022/04/15 01:24:29;;;;;;;5.38;3.47;;;;;;;19.93;34.07;101994.16;5011737;28;20057;-78
2022/04/15 01:26:56;;;;;;;6.65;4.03;;;;;;;19.90;33.71;101998.06;5013161;28;20549;-78
2022/04/15 01:29:26;;;;;;;5.47;3.67;;;;;;;19.91;34.22;101997.06;5013017;28;20080;-78
2022/04/15 01:31:53;;;;;;;5.70;4.03;;;;;;;19.86;34.32;101999.31;5005640;28;20045;-78
2022/04/15 01:34:19;;;;;;;6.95;4.28;;;;;;;19.84;33.90;102001.38;5009301;28;20066;-78
2022/04/15 01:36:46;;;;;;;6.75;3.75;;;;;;;19.81;33.98;101995.22;5011903;28;20085;-78
2022/04/15 01:39:13;;;;;;;6.78;4.35;;;;;;;19.80;33.91;101997.13;5012154;28;20081;-78
2022/04/15 01:41:39;;;;;;;7.15;4.53;;;;;;;19.76;33.99;101998.41;5013750;28;20107;-78
2022/04/15 01:44:07;;;;;;;7.85;4.53;;;;;;;19.74;34.53;102005.94;5004272;28;20082;-78
2022/04/15 01:46:35;;;;;;;6.38;4.57;;;;;;;19.70;34.53;102007.19;5008214;28;20065;-78
2022/04/15 01:49:02;;;;;;;6.88;4.30;;;;;;;19.67;34.23;102005.59;5009531;28;20065;-78
2022/04/15 01:51:33;;;;;;;7.28;4.60;;;;;;;19.68;34.55;102010.06;5009045;28;20089;-78
2022/04/15 01:54:00;;;;;;;8.00;4.93;;;;;;;19.62;34.29;102007.84;5007137;28;20054;-78
2022/04/15 01:56:27;;;;;;;6.22;4.60;;;;;;;19.60;34.60;102012.63;5010392;28;20113;-78
2022/04/15 01:58:53;;;;;;;8.52;5.03;;;;;;;19.58;34.45;102009.16;5006635;28;20078;-78
2022/04/15 02:01:20;;;;;;;8.25;4.75;;;;;;;19.57;34.75;102017.53;4999284;28;20082;-78
2022/04/15 02:03:47;;;;;;;6.75;4.68;;;;;;;19.53;34.47;102014.16;5007173;28;20065;-78
2022/04/15 02:06:14;;;;;;;8.88;5.10;;;;;;;19.52;34.61;102012.41;5006346;28;20088;-78
2022/04/15 02:08:41;;;;;;;7.15;4.45;;;;;;;19.49;34.93;102022.84;5006723;28;20071;-78
2022/04/15 02:11:07;;;;;;;6.30;4.10;;;;;;;19.46;34.92;102021.16;4999198;28;20164;-78
2022/04/15 02:13:34;;;;;;;7.30;4.50;;;;;;;19.45;34.79;102029.56;5004765;28;20563;-78
2022/04/15 02:16:01;;;;;;;6.93;4.35;;;;;;;19.43;35.21;102029.72;5010047;28;20053;-78
2022/04/15 02:18:27;;;;;;;6.78;4.53;;;;;;;19.38;35.36;102024.59;5009956;28;20056;-78
2022/04/15 02:20:54;;;;;;;6.82;4.57;;;;;;;19.37;35.00;102039.34;5005832;28;20058;-78
2022/04/15 02:23:20;;;;;;;7.80;4.32;;;;;;;19.34;35.13;102028.63;5011311;28;20132;-79
2022/04/15 02:25:47;;;;;;;8.05;4.47;;;;;;;19.33;35.45;102029.63;5012245;28;20457;-78
2022/04/15 02:28:13;;;;;;;7.18;4.53;;;;;;;19.31;35.51;102026.13;5011898;28;20100;-78
2022/04/15 02:30:40;;;;;;;6.88;4.30;;;;;;;19.30;35.62;102026.25;5012525;28;20050;-78
2022/04/15 02:33:06;;;;;;;7.10;4.88;;;;;;;19.28;35.50;102022.75;5011027;28;20096;-77
2022/04/15 02:35:33;;;;;;;8.60;4.82;;;;;;;19.26;35.43;102028.41;5004732;28;20655;-77
2022/04/15 02:38:00;;;;;;;7.28;5.10;;;;;;;19.24;35.45;102024.91;5012957;28;20053;-77
2022/04/15 02:40:26;;;;;;;8.02;4.93;;;;;;;19.22;35.39;102024.13;5011259;28;20604;-77
2022/04/15 02:42:54;;;;;;;7.80;4.95;;;;;;;19.19;35.82;102024.38;5012728;28;20050;-77
2022/04/15 02:45:40;;;;;;;6.65;4.38;;;;;;;19.17;35.64;102033.81;5009597;28;20096;-78
2022/04/15 02:48:07;;;;;;;7.18;4.93;;;;;;;19.14;35.84;102031.31;4971264;28;20065;-77
2022/04/15 02:50:34;;;;;;;6.25;4.43;;;;;;;19.12;35.76;102027.78;4985341;28;20054;-77
2022/04/15 02:53:01;;;;;;;7.38;4.80;;;;;;;19.11;35.74;102028.78;4986355;28;20053;-77
2022/04/15 02:55:28;;;;;;;8.43;5.22;;;;;;;19.07;35.81;102028.19;4959225;28;20066;-78
2022/04/15 02:57:55;;;;;;;9.20;4.97;;;;;;;19.06;35.88;102036.56;4980653;28;20137;-77
2022/04/15 03:00:21;;;;;;;6.47;4.70;;;;;;;19.04;35.96;102033.06;4985890;28;20121;-77
2022/04/15 03:02:48;;;;;;;6.30;4.50;;;;;;;19.00;35.89;102038.84;4981326;28;20561;-79
2022/04/15 03:05:15;;;;;;;6.28;4.47;;;;;;;18.99;36.10;102039.84;4978672;28;20101;-79
2022/04/15 03:07:41;;;;;;;7.20;4.88;;;;;;;18.97;35.82;102041.84;4980461;28;20089;-78
2022/04/15 03:10:08;;;;;;;7.60;4.80;;;;;;;18.96;36.30;102041.97;4985846;28;20085;-78
2022/04/15 03:12:36;;;;;;;7.30;4.68;;;;;;;18.94;35.98;102036.59;4980271;28;20050;-77
2022/04/15 03:15:04;;;;;;;9.35;5.43;;;;;;;18.92;36.03;102040.50;4977695;28;20757;-78
2022/04/15 03:17:33;;;;;;;7.20;5.03;;;;;;;18.91;36.09;102041.50;4987054;28;20097;-78
2022/04/15 03:20:02;;;;;;;9.30;5.30;;;;;;;18.87;36.50;102039.97;4969086;28;20598;-78
2022/04/15 03:22:43;;;;;;;8.70;5.00;;;;;;;18.86;36.77;102047.34;4984350;28;20100;-79
2022/04/15 03:25:17;;;;;;;9.25;5.22;;;;;;;18.84;36.89;102037.50;4988579;28;20054;-79
2022/04/15 03:27:44;;;;;;;9.10;5.18;;;;;;;18.79;36.53;102043.38;5002663;28;20100;-78
2022/04/15 03:30:12;;;;;;;6.88;4.80;;;;;;;18.78;36.14;102043.50;5009218;28;20099;-78
2022/04/15 03:32:50;;;;;;;7.75;5.13;;;;;;;18.76;37.15;102040.88;5005374;28;20104;-78
2022/04/15 03:35:20;;;;;;;7.15;5.00;;;;;;;18.71;36.68;102047.75;5020839;28;20122;-78
2022/04/15 03:37:48;;;;;;;7.78;5.32;;;;;;;18.69;36.39;102047.91;5004283;28;20461;-78
2022/04/15 03:40:15;;;;;;;7.97;5.35;;;;;;;18.67;36.45;102044.41;5001817;28;20528;-79
2022/04/15 03:42:46;;;;;;;7.93;4.80;;;;;;;18.68;36.49;102042.53;5000898;28;20050;-78
2022/04/15 03:45:14;;;;;;;7.50;4.63;;;;;;;18.62;36.56;102046.63;5008910;28;20081;-78
2022/04/15 03:47:42;;;;;;;7.18;4.57;;;;;;;18.62;36.86;102044.75;5004428;28;20442;-79
2022/04/15 03:50:13;;;;;;;8.18;5.22;;;;;;;18.62;36.73;102049.38;5007451;28;20062;-79
2022/04/15 03:52:46;;;;;;;6.90;4.75;;;;;;;18.57;36.47;102046.13;5010506;28;20132;-78
2022/04/15 03:55:15;;;;;;;6.97;5.07;;;;;;;18.55;36.54;102046.22;5004090;28;20046;-78
2022/04/15 03:57:42;;;;;;;8.15;5.32;;;;;;;18.52;36.82;102045.63;5007469;28;20065;-78
2022/04/15 04:00:12;;;;;;;8.13;5.25;;;;;;;18.52;36.85;102049.25;5017583;28;20096;-78
2022/04/15 04:02:38;;;;;;;7.32;4.78;;;;;;;18.47;36.74;102051.47;5008221;28;20409;-78
2022/04/15 04:05:07;;;;;;;7.43;5.00;;;;;;;18.45;36.82;102050.72;4990231;28;20665;-77
2022/04/15 04:07:33;;;;;;;8.35;5.22;;;;;;;18.42;36.97;102052.84;5010245;28;20064;-78
2022/04/15 04:10:00;;;;;;;7.75;5.20;;;;;;;18.42;36.46;102050.09;5010640;28;20153;-78
2022/04/15 04:12:34;;;;;;;6.95;4.90;;;;;;;18.41;37.22;102054.72;5008346;28;20081;-78
2022/04/15 04:15:01;;;;;;;9.15;5.93;;;;;;;18.37;36.67;102052.34;5001185;28;20046;-78
2022/04/15 04:17:28;;;;;;;8.50;5.55;;;;;;;18.34;36.47;102058.97;5011571;28;20053;-78
2022/04/15 04:19:55;;;;;;;7.72;5.60;;;;;;;18.32;37.13;102057.34;5003134;28;20051;-78
2022/04/15 04:22:30;;;;;;;9.15;5.97;;;;;;;18.34;37.19;102060.84;4999007;28;20050;-78
2022/04/15 04:24:57;;;;;;;9.38;5.85;;;;;;;18.27;36.78;102060.47;5010025;28;20524;-78
2022/04/15 04:27:24;;;;;;;7.90;5.25;;;;;;;18.24;36.69;102061.59;5010237;28;20053;-78
2022/04/15 04:29:51;;;;;;;9.32;5.65;;;;;;;18.21;36.93;102059.06;5009985;28;20509;-78
2022/04/15 04:32:19;;;;;;;8.95;5.75;;;;;;;18.20;37.30;102057.31;5012432;28;20092;-78
2022/04/15 04:34:46;;;;;;;8.15;5.40;;;;;;;18.18;37.13;102055.72;5014143;28;20069;-78
2022/04/15 04:37:13;;;;;;;8.05;5.70;;;;;;;18.15;37.07;102065.06;5014359;28;20112;-78
2022/04/15 04:39:40;;;;;;;9.65;6.15;;;;;;;18.12;37.12;102067.16;5014560;28;20571;-78
2022/04/15 04:42:07;;;;;;;9.00;6.28;;;;;;;18.10;37.46;102059.06;5013047;28;20081;-78
2022/04/15 04:44:36;;;;;;;8.70;6.00;;;;;;;18.10;37.47;102071.94;5008948;28;20081;-78
2022/04/15 04:47:04;;;;;;;10.45;6.25;;;;;;;18.07;37.31;102069.41;5013833;28;20120;-78
2022/04/15 04:49:30;;;;;;;9.00;6.10;;;;;;;18.05;37.23;102074.16;5007904;28;20100;-78
2022/04/15 04:51:57;;;;;;;9.68;6.55;;;;;;;18.04;37.71;102075.16;5012302;28;20082;-77
2022/04/15 04:54:24;;;;;;;8.90;6.53;;;;;;;18.03;37.77;102076.16;5012678;28;20057;-78
2022/04/15 04:56:51;;;;;;;10.23;6.68;;;;;;;18.01;37.35;102081.78;5013770;28;20050;-78
2022/04/15 04:59:17;;;;;;;10.13;6.93;;;;;;;18.00;37.84;102090.13;5004099;28;20516;-78
2022/04/15 05:01:44;;;;;;;11.30;6.70;;;;;;;17.99;37.81;102092.00;5012778;28;20081;-77
2022/04/15 05:04:10;;;;;;;10.02;7.10;;;;;;;17.99;37.93;102093.88;5000311;28;20050;-78
2022/04/15 05:06:37;;;;;;;8.43;6.00;;;;;;;17.98;37.84;102097.63;5011328;28;20544;-78
2022/04/15 05:09:04;;;;;;;9.38;6.45;;;;;;;17.97;37.82;102095.88;5010951;28;20077;-78
2022/04/15 05:11:30;;;;;;;9.30;7.03;;;;;;;17.98;37.98;102103.13;5014401;28;20089;-78
2022/04/15 05:13:57;;;;;;;9.30;6.15;;;;;;;17.97;37.96;102106.84;5012994;28;20050;-78
2022/04/15 05:16:23;;;;;;;11.27;6.72;;;;;;;17.97;38.47;102112.34;5004989;28;20049;-78
2022/04/15 05:18:50;;;;;;;9.60;6.72;;;;;;;17.97;38.38;102124.22;5003547;28;20406;-78
2022/04/15 05:21:17;;;;;;;9.30;6.72;;;;;;;17.99;38.42;102121.34;5013128;28;20112;-77
2022/04/15 05:23:45;;;;;;;11.30;6.95;;;;;;;17.99;38.26;102121.34;5008503;28;20454;-78
2022/04/15 05:26:13;;;;;;;8.70;5.97;;;;;;;18.00;38.48;102117.63;5015370;28;20058;-78
2022/04/15 05:28:41;;;;;;;10.05;6.95;;;;;;;18.03;38.30;102123.75;5012617;28;20429;-78
2022/04/15 05:31:09;;;;;;;8.15;5.90;;;;;;;18.06;38.36;102128.13;5010045;28;20054;-77
2022/04/15 05:33:35;;;;;;;8.30;6.35;;;;;;;18.08;38.71;102139.88;5008640;28;20045;-77
2022/04/15 05:36:03;;;;;;;10.18;6.43;;;;;;;18.11;38.69;102145.16;5009216;28;20046;-78
2022/04/15 05:38:29;;;;;;;9.20;6.25;;;;;;;18.12;38.64;102141.38;5012715;28;20068;-77
2022/04/15 05:40:56;;;;;;;9.70;7.07;;;;;;;18.15;38.38;102154.91;5013443;28;20050;-77
2022/04/15 05:43:23;;;;;;;9.52;6.95;;;;;;;18.16;38.74;102156.66;5015842;28;20042;-77
2022/04/15 05:45:51;;;;;;;9.65;6.43;;;;;;;18.19;38.42;102164.69;5014155;28;20128;-77
2022/04/15 05:48:18;;;;;;;10.07;6.70;;;;;;;18.20;38.48;102163.69;5010690;28;20075;-77
2022/04/15 05:50:44;;;;;;;9.50;6.57;;;;;;;18.21;38.23;102162.66;5019724;28;20050;-77
2022/04/15 05:53:15;;;;;;;9.73;6.07;;;;;;;18.26;38.78;102174.19;5028814;28;20050;-77
2022/04/15 05:55:43;;;;;;;9.27;6.13;;;;;;;18.23;38.65;102178.03;5008913;28;20053;-77
2022/04/15 05:58:10;;;;;;;8.75;6.18;;;;;;;18.26;38.27;102182.44;5008625;28;20136;-77
2022/04/15 06:00:37;;;;;;;8.75;6.00;;;;;;;18.28;38.25;102179.56;5007764;28;20069;-76
2022/04/15 06:03:04;;;;;;;9.65;6.13;;;;;;;18.29;38.58;102184.94;5008561;28;20509;-77
2022/04/15 06:05:31;;;;;;;10.27;6.30;;;;;;;18.31;38.52;102182.94;5005206;28;20125;-77
2022/04/15 06:07:58;;;;;;;8.45;6.40;;;;;;;18.32;38.62;102192.06;4992569;28;20077;-77
2022/04/15 06:10:25;;;;;;;9.93;6.65;;;;;;;18.33;38.43;102200.19;5011289;28;20485;-84
2022/04/15 06:12:57;;;;;;;11.55;6.53;;;;;;;18.36;38.38;102202.72;4994133;28;20092;-79
2022/04/15 06:15:30;;;;;;;9.30;6.05;;;;;;;18.37;38.51;102204.44;5004550;28;20061;-80
2022/04/15 06:17:58;;;;;;;10.27;6.88;;;;;;;18.39;38.40;102209.84;4993593;28;20453;-80
2022/04/15 06:20:26;;;;;;;14.23;8.10;;;;;;;18.43;38.30;102220.50;5009093;28;20073;-80
2022/04/15 06:22:53;;;;;;;16.02;9.50;;;;;;;18.45;38.07;102220.34;5010277;28;20124;-81
2022/04/15 06:25:20;;;;;;;18.92;10.57;;;;;;;18.47;38.46;102227.50;4988057;28;20144;-77
2022/04/15 06:27:48;;;;;;;17.63;9.77;;;;;;;18.51;38.13;102228.13;4993218;28;20410;-78
2022/04/15 06:30:14;;;;;;;17.10;10.05;;;;;;;18.50;38.15;102230.00;5005804;28;20050;-78
2022/04/15 06:32:41;;;;;;;16.23;9.55;;;;;;;18.50;38.20;102234.63;5011643;28;20116;-78
2022/04/15 06:35:08;;;;;;;15.95;10.10;;;;;;;18.50;37.77;102240.13;5009114;28;20046;-77
2022/04/15 06:37:34;;;;;;;18.63;11.07;;;;;;;18.47;38.09;102237.63;4987969;28;20046;-78
2022/04/15 06:40:01;;;;;;;19.38;11.73;;;;;;;18.44;37.79;102238.75;5004826;28;20057;-78
2022/04/15 06:42:30;;;;;;;19.08;11.52;;;;;;;18.41;38.11;102243.59;4995098;28;20481;-77
2022/04/15 06:44:58;;;;;;;20.73;12.25;;;;;;;18.38;38.14;102249.31;4991941;28;20097;-77
2022/04/15 06:47:25;;;;;;;25.50;14.60;;;;;;;18.32;37.91;102250.69;5013308;28;20054;-77
2022/04/15 06:49:52;;;;;;;24.13;14.20;;;;;;;18.29;37.71;102253.66;5010468;28;20103;-77
2022/04/15 06:52:18;;;;;;;28.05;16.42;;;;;;;18.25;38.17;102260.41;5013634;28;20104;-79
2022/04/15 06:54:45;;;;;;;25.25;16.15;;;;;;;18.22;38.14;102260.63;5012735;28;20188;-78
2022/04/15 06:57:12;;;;;;;26.40;16.65;;;;;;;18.18;38.37;102270.13;5009733;28;20054;-78
2022/04/15 06:59:39;;;;;;;27.58;16.30;;;;;;;18.15;38.16;102267.59;5012535;28;20104;-78
2022/04/15 07:02:06;;;;;;;24.08;16.25;;;;;;;18.09;38.17;102259.81;5006132;28;20049;-79
2022/04/15 07:04:33;;;;;;;24.70;16.00;;;;;;;18.05;38.10;102267.41;4998296;28;20485;-78
2022/04/15 07:07:02;;;;;;;19.85;12.85;;;;;;;18.03;38.31;102277.66;5013897;28;20474;-80
2022/04/15 07:09:29;;;;;;;17.17;11.38;;;;;;;17.97;38.05;102275.38;5013817;28;20057;-81
2022/04/15 07:11:56;;;;;;;15.98;11.32;;;;;;;17.95;38.32;102285.63;5012722;28;20470;-78
2022/04/15 07:14:23;;;;;;;17.30;10.75;;;;;;;17.88;38.47;102274.19;5009042;28;20058;-79
2022/04/15 07:16:50;;;;;;;15.48;10.38;;;;;;;17.81;38.57;102280.25;5009971;28;20045;-86
2022/04/15 07:19:17;;;;;;;16.33;10.18;;;;;;;17.73;38.06;102278.09;5013668;28;20093;-79
2022/04/15 07:21:44;;;;;;;17.67;10.80;;;;;;;17.68;38.06;102279.44;5013094;28;20049;-79
2022/04/15 07:24:11;;;;;;;18.58;11.55;;;;;;;17.58;38.42;102289.28;5015259;28;20476;-79
2022/04/15 07:26:37;;;;;;;17.58;11.02;;;;;;;17.49;38.50;102288.09;5015700;28;20050;-80
2022/04/15 07:29:04;;;;;;;17.15;10.90;;;;;;;17.42;38.78;102293.16;5012096;28;20480;-80
2022/04/15 07:31:32;;;;;;;16.35;11.00;;;;;;;17.32;38.63;102293.94;5005375;28;20054;-80
2022/04/15 07:34:08;;;;;;;15.23;9.75;;;;;;;17.26;39.55;102292.53;5013292;28;20089;-79
2022/04/15 07:39:09;;;;;;;16.13;10.27;;;;;;;17.13;39.43;102299.88;5005705;28;20050;-79
2022/04/15 07:41:51;;;;;;;14.60;9.32;;;;;;;17.10;39.24;102300.97;5012904;28;20077;-79
2022/04/15 07:44:21;;;;;;;17.35;11.18;;;;;;;16.97;39.57;102304.69;5004505;28;20058;-79
2022/04/15 07:46:48;;;;;;;17.90;10.65;;;;;;;16.94;39.21;102303.06;5012999;28;20050;-81
2022/04/15 07:49:16;;;;;;;18.13;9.65;;;;;;;16.91;39.16;102313.34;5012262;28;20519;-79
2022/04/15 07:51:42;;;;;;;17.50;10.48;;;;;;;16.83;39.30;102307.53;5011536;28;20080;-80
2022/04/15 07:54:09;;;;;;;13.88;9.10;;;;;;;16.83;39.73;102304.78;5012200;28;20136;-80
2022/04/15 07:56:36;;;;;;;15.45;10.05;;;;;;;16.79;39.94;102308.75;5012192;28;20046;-80
2022/04/15 07:59:12;;;;;;;14.10;9.13;;;;;;;16.81;39.29;102304.88;5012097;28;20080;-79
2022/04/15 08:01:39;;;;;;;15.65;10.75;;;;;;;16.77;38.98;102300.63;5010632;28;20062;-80
2022/04/15 08:04:06;;;;;;;17.75;11.80;;;;;;;16.77;39.10;102305.22;4998408;28;20058;-80
2022/04/15 08:06:35;;;;;;;18.48;13.05;;;;;;;16.80;38.98;102305.03;5014960;28;20053;-80
2022/04/15 08:09:02;;;;;;;17.85;13.82;;;;;;;16.73;39.01;102307.28;5012719;28;20179;-80
2022/04/15 08:11:32;;;;;;;17.48;12.90;;;;;;;16.77;39.16;102306.09;5016033;28;20046;-80
2022/04/15 08:13:58;;;;;;;17.65;12.77;;;;;;;16.78;39.04;102307.88;5009963;28;20073;-80
2022/04/15 08:16:25;;;;;;;17.27;11.95;;;;;;;16.82;39.34;102316.75;5017794;28;20141;-81
2022/04/15 08:18:52;;;;;;;16.60;12.13;;;;;;;16.87;39.09;102315.47;5015350;28;20046;-81
2022/04/15 08:21:24;;;;;;;16.80;12.27;;;;;;;16.97;38.66;102319.28;5014808;28;20480;-81
2022/04/15 08:23:50;;;;;;;17.02;12.85;;;;;;;16.97;38.79;102312.91;5011321;28;20755;-81
2022/04/15 08:26:17;;;;;;;16.63;13.07;;;;;;;16.98;38.97;102312.81;5010717;28;20476;-80
2022/04/15 08:28:44;;;;;;;16.48;12.88;;;;;;;17.06;38.48;102315.00;5011979;28;20476;-80
2022/04/15 08:31:11;;;;;;;14.40;11.38;;;;;;;17.04;38.06;102315.16;5010711;28;20054;-80
2022/04/15 08:33:38;;;;;;;15.38;12.00;;;;;;;17.08;38.38;102315.78;5010616;28;20042;-80
2022/04/15 08:36:05;;;;;;;16.58;12.85;;;;;;;17.09;38.17;102318.44;5011832;28;20085;-79
2022/04/15 08:38:31;;;;;;;15.43;11.85;;;;;;;17.11;38.09;102321.97;5011527;28;20042;-79
2022/04/15 08:40:59;;;;;;;14.27;10.50;;;;;;;17.13;37.99;102318.22;5012723;28;20085;-80
2022/04/15 08:43:26;;;;;;;11.27;8.52;;;;;;;17.15;38.26;102316.22;5011600;28;20109;-80
2022/04/15 08:45:53;;;;;;;9.13;7.45;;;;;;;17.18;37.66;102319.66;5009921;28;20046;-80
2022/04/15 08:48:21;;;;;;;9.77;7.20;;;;;;;17.25;38.07;102322.81;5011622;28;20321;-81
2022/04/15 08:50:48;;;;;;;9.55;7.55;;;;;;;17.30;38.16;102321.50;5010587;28;20058;-80
2022/04/15 08:53:17;;;;;;;10.77;8.55;;;;;;;17.37;37.89;102324.69;5004247;28;20076;-79
2022/04/15 08:55:46;;;;;;;9.43;7.60;;;;;;;17.45;37.87;102325.03;4993643;28;20501;-78
2022/04/15 08:58:13;;;;;;;9.55;7.05;;;;;;;17.49;37.96;102334.78;4996926;28;20501;-80
2022/04/15 09:00:40;;;;;;;7.75;6.95;;;;;;;17.57;37.59;102332.34;5006129;28;20108;-81
2022/04/15 09:03:07;;;;;;;8.25;5.88;;;;;;;17.65;37.64;102335.47;5009678;28;20493;-80
2022/04/15 09:05:34;;;;;;;7.25;5.63;;;;;;;17.72;37.27;102338.63;5000870;28;20045;-82
2022/04/15 09:08:11;;;;;;;6.65;4.50;;;;;;;17.84;36.87;102343.22;5010426;28;20132;-80
2022/04/15 09:10:40;;;;;;;5.97;4.82;;;;;;;17.90;37.10;102350.13;4999554;28;20054;-80
2022/04/15 09:13:18;;;;;;;5.60;4.28;;;;;;;18.01;36.74;102347.47;5001039;28;20058;-80
2022/04/15 09:15:45;;;;;;;5.72;4.03;;;;;;;18.04;37.12;102345.38;4998141;28;20476;-78
2022/04/15 09:18:29;;;;;;;4.95;3.70;;;;;;;18.17;36.33;102345.34;5012421;28;20050;-78
2022/04/15 09:21:21;;;;;;;5.30;3.42;;;;;;;18.24;36.34;102349.38;4998063;28;20042;-79
2022/04/15 09:23:53;;;;;;;4.20;3.40;;;;;;;18.37;36.22;102352.94;5009208;28;20472;-76
2022/04/15 09:26:20;;;;;;;4.18;2.88;;;;;;;18.42;36.28;102347.13;5012863;28;20070;-78
2022/04/15 09:28:48;;;;;;;4.38;2.70;;;;;;;18.52;36.56;102354.56;5012971;28;20133;-78
2022/04/15 09:31:16;;;;;;;3.55;2.28;;;;;;;18.62;36.58;102362.97;5005760;28;20113;-80
2022/04/15 09:33:57;;;;;;;3.40;2.40;;;;;;;18.72;35.10;102364.03;5001576;28;20058;-79
2022/04/15 09:36:33;;;;;;;3.85;2.53;;;;;;;18.84;35.09;102362.22;5008736;28;20050;-81
2022/04/15 09:39:16;;;;;;;3.15;2.38;;;;;;;18.90;35.97;102359.88;5011947;28;20050;-80
2022/04/15 09:41:56;;;;;;;3.15;2.22;;;;;;;19.01;35.52;102359.03;4997002;28;20054;-80
2022/04/15 09:44:31;;;;;;;3.75;2.17;;;;;;;19.08;35.39;102357.53;5004513;28;20141;-81
2022/04/15 09:47:03;;;;;;;3.55;2.35;;;;;;;19.20;35.15;102364.81;5003244;28;20057;-79
2022/04/15 09:49:34;;;;;;;3.70;2.43;;;;;;;19.25;35.35;102359.84;5006770;28;20042;-79
2022/04/15 09:52:03;;;;;;;3.55;1.90;;;;;;;19.31;35.31;102367.59;5009225;28;20104;-79
2022/04/15 09:54:31;;;;;;;3.10;2.03;;;;;;;19.38;34.99;102360.59;5011111;28;20053;-78
2022/04/15 09:56:59;;;;;;;3.50;2.60;;;;;;;19.48;35.18;102362.66;5008395;28;20049;-78
2022/04/15 09:59:28;;;;;;;4.13;2.38;;;;;;;19.55;35.12;102369.41;5005252;28;20061;-78
2022/04/15 10:02:02;;;;;;;4.22;2.17;;;;;;;19.61;34.44;102358.78;5006716;28;20077;-78
2022/04/15 10:04:30;;;;;;;4.10;2.30;;;;;;;19.64;34.80;102361.28;5009699;28;20089;-77
2022/04/15 10:06:57;;;;;;;3.25;2.10;;;;;;;19.70;34.34;102357.16;5005577;28;20046;-78
2022/04/15 10:09:25;;;;;;;3.72;2.50;;;;;;;19.74;34.38;102361.44;5004823;28;20057;-77
2022/04/15 10:11:54;;;;;;;3.90;2.42;;;;;;;19.79;35.01;102361.03;5007991;28;20054;-72
2022/04/15 10:14:21;;;;;;;4.03;2.38;;;;;;;19.84;34.53;102364.31;5009003;28;20133;-72
2022/04/15 10:16:48;;;;;;;4.65;2.38;;;;;;;19.89;34.82;102364.81;5003674;28;20046;-73
2022/04/15 10:19:15;;;;;;;3.33;2.25;;;;;;;19.94;34.73;102357.88;5006337;28;20133;-73
2022/04/15 10:21:45;;;;;;;5.30;2.15;;;;;;;20.02;35.09;102354.50;5010186;28;20529;-73
2022/04/15 10:24:13;;;;;;;3.30;2.20;;;;;;;20.05;35.10;102355.13;5009213;28;20493;-73
2022/04/15 10:26:42;;;;;;;3.30;2.22;;;;;;;20.16;35.15;102361.66;5010589;28;20219;-72
2022/04/15 10:29:10;;;;;;;4.60;2.58;;;;;;;20.23;35.46;102351.84;5010105;28;20145;-73
2022/04/15 10:31:39;;;;;;;4.10;2.40;;;;;;;20.35;34.72;102372.91;5004060;28;20497;-73
2022/04/15 10:34:21;;;;;;;4.18;2.58;;;;;;;20.47;34.34;102360.84;4996422;28;20049;-73
2022/04/15 10:36:52;;;;;;;3.95;3.05;;;;;;;20.52;33.35;102359.44;5000148;28;20062;-73
2022/04/15 10:39:26;;;;;;;3.53;2.80;;;;;;;20.56;34.02;102356.44;5006784;28;20349;-72
2022/04/15 10:41:58;;;;;;;3.60;2.58;;;;;;;20.64;34.20;102353.88;5005141;28;20085;-72
2022/04/15 10:44:35;;;;;;;3.88;2.80;;;;;;;20.68;33.21;102360.88;5007932;28;20444;-73
2022/04/15 10:47:12;;;;;;;4.03;2.95;;;;;;;20.77;33.03;102360.97;5009040;28;20049;-73
2022/04/15 10:49:53;;;;;;;4.38;2.65;;;;;;;20.81;33.64;102356.97;4998552;28;20058;-73
2022/04/15 10:52:24;;;;;;;3.67;2.75;;;;;;;20.86;33.53;102353.78;4996846;28;20077;-73
2022/04/15 10:55:04;;;;;;;4.00;3.15;;;;;;;20.92;32.01;102356.00;4999195;28;20054;-73
2022/04/15 10:57:38;;;;;;;5.05;4.03;;;;;;;21.01;32.50;102349.69;5007776;28;20442;-75
2022/04/15 11:03:04;;;;;;;4.47;3.15;;;;;;;21.04;33.15;102356.84;4999566;28;20049;-73
2022/04/15 11:05:36;;;;;;;5.10;4.05;;;;;;;21.10;33.15;102357.16;5007240;28;20489;-72
2022/04/15 11:08:09;;;;;;;5.20;4.20;;;;;;;21.19;33.34;102361.03;5009270;28;20468;-72
2022/04/15 11:10:41;;;;;;;6.13;3.97;;;;;;;21.26;33.50;102351.19;5004787;28;20060;-73
2022/04/15 11:13:40;;;;;;;5.00;3.78;;;;;;;21.31;33.12;102340.63;5008519;28;20077;-73
2022/04/15 11:16:07;;;;;;;4.93;3.67;;;;;;;21.39;33.68;102348.25;5008346;28;20655;-73
2022/04/15 11:18:43;;;;;;;5.47;3.90;;;;;;;21.53;32.92;102348.75;4999063;28;20050;-72
2022/04/15 11:21:29;;;;;;;6.05;3.83;;;;;;;21.62;32.94;102353.47;5006582;28;20124;-74
2022/04/15 11:23:58;;;;;;;5.38;3.88;;;;;;;21.70;33.25;102355.53;4990559;28;20085;-74
2022/04/15 11:26:26;;;;;;;5.50;4.57;;;;;;;21.79;33.05;102351.94;5005649;28;20646;-72
2022/04/15 11:28:54;;;;;;;6.22;4.82;;;;;;;21.89;32.79;102350.09;5009041;28;20053;-72
2022/04/15 11:31:23;;;;;;;6.80;5.80;;;;;;;21.98;32.88;102352.06;5004274;28;20050;-72
2022/04/15 11:33:50;;;;;;;8.93;7.18;;;;;;;22.06;31.84;102353.25;5000973;28;20085;-71